createdAt,value
2023-09-15T00:00:26.863Z,54.40
2023-09-15T00:02:56.809Z,54.61
2023-09-15T00:05:27.072Z,54.81
2023-09-15T00:07:54.101Z,54.44
2023-09-15T00:10:22.943Z,54.65
2023-09-15T00:12:52.201Z,54.65
2023-09-15T00:15:20.317Z,54.36
2023-09-15T00:17:49.660Z,54.48
2023-09-15T00:20:18.671Z,54.61
2023-09-15T00:22:50.738Z,54.59
2023-09-15T00:25:20.485Z,54.52
2023-09-15T00:27:48.847Z,54.88
2023-09-15T00:30:19.908Z,54.70
2023-09-15T00:32:48.962Z,54.83
2023-09-15T00:35:18.476Z,54.81
2023-09-15T00:37:47.803Z,55.16
2023-09-15T00:40:16.345Z,55.13
2023-09-15T00:42:45.259Z,54.95
2023-09-15T00:45:15.993Z,54.67
2023-09-15T00:47:47.797Z,54.99
2023-09-15T00:50:17.858Z,54.76
2023-09-15T00:52:47.319Z,54.88
2023-09-15T00:55:15.683Z,55.16
2023-09-15T00:57:44.472Z,55.07
2023-09-15T01:00:13.997Z,54.96
2023-09-15T01:02:41.885Z,54.82
2023-09-15T01:08:05.663Z,54.92
2023-09-15T01:10:34.353Z,54.82
2023-09-15T01:13:03.806Z,55.13
2023-09-15T01:15:35.500Z,55.13
2023-09-15T01:18:11.849Z,55.09
2023-09-15T01:21:18.317Z,55.35
2023-09-15T01:24:26.158Z,55.22
2023-09-15T01:27:40.859Z,55.06
2023-09-15T01:30:11.165Z,54.97
2023-09-15T01:32:42.917Z,55.24
2023-09-15T01:35:10.825Z,55.10
2023-09-15T01:37:38.695Z,55.29
2023-09-15T01:40:08.474Z,55.45
2023-09-15T01:42:36.592Z,55.29
2023-09-15T01:45:04.854Z,55.23
2023-09-15T01:47:35.596Z,55.40
2023-09-15T01:50:04.840Z,55.46
2023-09-15T01:52:33.099Z,55.34
2023-09-15T01:55:03.099Z,55.18
2023-09-15T01:57:31.033Z,55.29
2023-09-15T01:59:59.714Z,55.33
2023-09-15T02:02:27.925Z,55.48
2023-09-15T02:04:57.190Z,55.37
2023-09-15T02:07:25.011Z,55.28
2023-09-15T02:09:53.320Z,55.40
2023-09-15T02:12:21.194Z,55.26
2023-09-15T02:14:49.025Z,55.25
2023-09-15T02:17:17.804Z,55.76
2023-09-15T02:19:45.656Z,55.48
2023-09-15T02:22:14.997Z,55.62
2023-09-15T02:24:43.108Z,55.65
2023-09-15T02:27:10.894Z,55.46
2023-09-15T02:29:38.728Z,55.64
2023-09-15T02:32:07.149Z,55.52
2023-09-15T02:34:34.969Z,55.48
2023-09-15T02:37:04.338Z,55.57
2023-09-15T02:39:34.313Z,55.48
2023-09-15T02:42:02.563Z,55.56
2023-09-15T02:44:31.625Z,55.36
2023-09-15T02:46:59.653Z,55.45
2023-09-15T02:49:27.481Z,55.37
2023-09-15T02:51:56.352Z,55.52
2023-09-15T02:54:24.378Z,55.61
2023-09-15T02:56:53.582Z,55.55
2023-09-15T02:59:21.421Z,55.61
2023-09-15T03:01:52.056Z,55.73
2023-09-15T03:04:20.411Z,55.63
2023-09-15T03:06:49.828Z,55.58
2023-09-15T03:09:17.919Z,55.71
2023-09-15T03:11:47.120Z,55.39
2023-09-15T03:14:17.867Z,55.60
2023-09-15T03:16:45.769Z,55.57
2023-09-15T03:19:13.774Z,55.72
2023-09-15T03:21:42.074Z,55.73
2023-09-15T03:24:10.420Z,55.89
2023-09-15T03:26:40.298Z,55.77
2023-09-15T03:29:09.121Z,55.93
2023-09-15T03:31:38.352Z,55.72
2023-09-15T03:34:06.272Z,55.76
2023-09-15T03:36:35.314Z,55.96
2023-09-15T03:39:03.302Z,55.86
2023-09-15T03:41:31.311Z,55.88
2023-09-15T03:44:00.426Z,55.80
2023-09-15T03:46:28.352Z,55.86
2023-09-15T03:48:57.601Z,56.14
2023-09-15T03:51:26.821Z,55.90
2023-09-15T03:53:54.910Z,56.04
2023-09-15T03:56:22.799Z,56.17
2023-09-15T03:58:50.950Z,55.97
2023-09-15T04:01:22.434Z,56.11
2023-09-15T04:03:50.369Z,56.17
2023-09-15T04:06:20.108Z,55.97
2023-09-15T04:08:48.346Z,56.22
2023-09-15T04:11:16.377Z,56.03
2023-09-15T04:13:44.544Z,56.15
2023-09-15T04:16:12.422Z,56.26
2023-09-15T04:18:41.917Z,56.12
2023-09-15T04:21:10.008Z,56.53
2023-09-15T04:23:39.209Z,56.51
2023-09-15T04:26:07.037Z,56.71
2023-09-15T04:28:34.893Z,56.56
2023-09-15T04:31:02.900Z,56.65
2023-09-15T04:33:30.977Z,56.72
2023-09-15T04:35:58.944Z,56.59
2023-09-15T04:38:26.755Z,56.65
2023-09-15T04:40:56.197Z,56.29
2023-09-15T04:43:25.070Z,56.61
2023-09-15T04:45:53.111Z,56.50
2023-09-15T04:48:21.029Z,56.77
2023-09-15T04:50:48.871Z,56.78
2023-09-15T04:53:16.938Z,56.62
2023-09-15T04:55:44.733Z,56.82
2023-09-15T04:58:14.244Z,56.90
2023-09-15T05:00:42.143Z,56.59
2023-09-15T05:03:10.235Z,56.81
2023-09-15T05:05:38.349Z,56.56
2023-09-15T05:08:06.544Z,56.94
2023-09-15T05:10:34.386Z,57.18
2023-09-15T05:13:06.555Z,57.16
2023-09-15T05:15:36.551Z,57.24
2023-09-15T05:18:05.058Z,57.26
2023-09-15T05:20:33.301Z,57.53
2023-09-15T05:23:01.191Z,57.72
2023-09-15T05:25:29.136Z,57.88
2023-09-15T05:27:57.293Z,57.52
2023-09-15T05:30:25.138Z,57.64
2023-09-15T05:32:54.330Z,57.66
2023-09-15T05:35:23.169Z,57.60
2023-09-15T05:37:51.111Z,58.00
2023-09-15T05:40:19.142Z,57.61
2023-09-15T05:42:47.189Z,57.60
2023-09-15T05:45:15.065Z,57.73
2023-09-15T05:47:42.930Z,57.86
2023-09-15T05:50:12.704Z,57.75
2023-09-15T05:52:40.541Z,57.88
2023-09-15T05:55:09.227Z,58.14
2023-09-15T05:57:37.495Z,58.06
2023-09-15T06:00:07.008Z,58.15
2023-09-15T06:02:35.331Z,58.33
2023-09-15T06:05:03.995Z,58.24
2023-09-15T06:07:33.252Z,58.35
2023-09-15T06:10:01.128Z,58.38
2023-09-15T06:12:29.185Z,58.82
2023-09-15T06:14:58.845Z,58.65
2023-09-15T06:17:29.018Z,58.93
2023-09-15T06:19:56.924Z,58.83
2023-09-15T06:22:25.071Z,59.07
2023-09-15T06:24:55.330Z,59.24
2023-09-15T06:27:23.191Z,59.48
2023-09-15T06:29:53.160Z,59.58
2023-09-15T06:32:21.712Z,59.93
2023-09-15T06:34:49.540Z,59.77
2023-09-15T06:37:17.370Z,60.63
2023-09-15T06:39:45.348Z,60.12
2023-09-15T06:42:14.523Z,60.78
2023-09-15T06:44:42.306Z,60.92
2023-09-15T06:47:10.796Z,61.08
2023-09-15T06:49:38.616Z,61.07
2023-09-15T06:52:07.230Z,61.04
2023-09-15T06:54:35.210Z,60.94
2023-09-15T06:57:03.949Z,61.10
2023-09-15T06:59:33.697Z,60.30
2023-09-15T07:02:04.253Z,60.56
2023-09-15T07:04:32.418Z,60.50
2023-09-15T07:07:00.475Z,60.66
2023-09-15T07:09:28.510Z,60.06
2023-09-15T07:11:56.309Z,60.03
2023-09-15T07:14:24.131Z,60.05
2023-09-15T07:16:53.560Z,59.30
2023-09-15T07:19:21.283Z,59.65
2023-09-15T07:21:49.203Z,59.28
2023-09-15T07:24:17.169Z,58.19
2023-09-15T07:26:44.974Z,58.30
2023-09-15T07:29:12.793Z,58.35
2023-09-15T07:31:41.767Z,58.39
2023-09-15T07:34:11.636Z,58.04
2023-09-15T07:36:39.497Z,57.23
2023-09-15T07:39:07.691Z,57.48
2023-09-15T07:41:35.562Z,57.40
2023-09-15T07:44:03.486Z,57.27
2023-09-15T07:46:31.551Z,56.70
2023-09-15T07:48:59.591Z,56.47
2023-09-15T07:51:28.816Z,57.01
2023-09-15T07:53:57.163Z,56.24
2023-09-15T07:56:25.325Z,56.21
2023-09-15T07:58:53.375Z,55.39
2023-09-15T08:01:21.531Z,55.37
2023-09-15T08:03:49.684Z,55.48
2023-09-15T08:06:17.836Z,55.54
2023-09-15T08:08:47.239Z,56.18
2023-09-15T08:11:14.850Z,56.39
2023-09-15T08:13:42.680Z,55.27
2023-09-15T08:16:11.391Z,54.41
2023-09-15T08:18:39.420Z,53.76
2023-09-15T08:21:07.236Z,54.09
2023-09-15T08:23:35.608Z,53.92
2023-09-15T08:26:05.050Z,53.83
2023-09-15T08:28:33.108Z,53.13
2023-09-15T08:31:01.132Z,53.47
2023-09-15T08:33:29.487Z,53.01
2023-09-15T08:35:57.299Z,53.05
2023-09-15T08:38:26.976Z,53.08
2023-09-15T08:41:01.588Z,52.46
2023-09-15T08:43:34.069Z,52.13
2023-09-15T08:46:07.142Z,51.81
2023-09-15T08:48:40.999Z,51.30
2023-09-15T08:51:09.324Z,50.87
2023-09-15T08:53:38.579Z,50.87
2023-09-15T08:56:07.234Z,51.59
2023-09-15T08:58:37.993Z,51.43
2023-09-15T09:01:09.258Z,51.33
2023-09-15T09:03:38.658Z,51.51
2023-09-15T09:06:10.409Z,52.81
2023-09-15T09:08:41.534Z,50.59
2023-09-15T09:11:09.596Z,51.61
2023-09-15T09:13:44.537Z,51.28
2023-09-15T09:16:15.987Z,51.03
2023-09-15T09:18:44.214Z,50.24
2023-09-15T09:21:12.069Z,49.91
2023-09-15T09:23:39.933Z,48.85
2023-09-15T09:26:13.286Z,49.64
2023-09-15T09:28:42.753Z,49.38
2023-09-15T09:31:11.114Z,50.57
2023-09-15T09:33:42.750Z,49.39
2023-09-15T09:36:14.773Z,49.41
2023-09-15T09:38:47.557Z,48.18
2023-09-15T09:41:17.804Z,48.23
2023-09-15T09:43:50.615Z,47.35
2023-09-15T09:46:20.669Z,47.81
2023-09-15T09:48:49.773Z,47.17
2023-09-15T09:51:18.713Z,47.75
2023-09-15T09:53:46.673Z,49.22
2023-09-15T09:56:15.182Z,49.30
2023-09-15T09:58:43.485Z,50.15
2023-09-15T10:01:13.165Z,50.71
2023-09-15T10:03:42.069Z,49.09
2023-09-15T10:06:11.058Z,48.99
2023-09-15T10:08:42.586Z,48.10
2023-09-15T10:11:12.057Z,47.97
2023-09-15T10:13:41.184Z,47.91
2023-09-15T10:16:09.026Z,46.90
2023-09-15T10:18:39.391Z,46.58
2023-09-15T10:21:08.675Z,45.69
2023-09-15T10:23:37.059Z,48.42
2023-09-15T10:26:06.321Z,45.85
2023-09-15T10:31:08.902Z,46.12
2023-09-15T10:33:41.083Z,45.08
2023-09-15T10:36:15.292Z,45.16
2023-09-15T10:38:45.360Z,45.28
2023-09-15T10:41:25.564Z,44.89
2023-09-15T10:43:53.451Z,44.82
2023-09-15T10:46:21.415Z,44.12
2023-09-15T10:48:52.976Z,44.68
2023-09-15T10:51:22.849Z,44.06
2023-09-15T10:53:52.208Z,45.07
2023-09-15T10:56:20.638Z,46.29
2023-09-15T10:58:49.841Z,45.12
2023-09-15T11:01:19.420Z,44.10
2023-09-15T11:03:47.962Z,43.97
2023-09-15T11:06:19.450Z,43.56
2023-09-15T11:08:47.631Z,44.30
2023-09-15T11:11:19.523Z,44.33
2023-09-15T11:13:47.318Z,43.58
2023-09-15T11:16:15.478Z,43.66
2023-09-15T11:18:43.614Z,42.63
2023-09-15T11:21:13.343Z,42.61
2023-09-15T11:23:46.845Z,43.01
2023-09-15T11:26:25.879Z,42.25
2023-09-15T11:28:55.781Z,42.37
2023-09-15T11:31:24.882Z,42.86
2023-09-15T11:33:53.860Z,42.89
2023-09-15T11:36:22.979Z,44.18
2023-09-15T11:38:53.673Z,43.66
2023-09-15T11:41:31.040Z,43.31
2023-09-15T11:43:59.749Z,42.58
2023-09-15T11:46:28.154Z,42.32
2023-09-15T11:48:57.030Z,42.40
2023-09-15T11:51:25.141Z,41.08
2023-09-15T11:53:54.441Z,41.35
2023-09-15T11:56:22.239Z,42.78
2023-09-15T11:58:51.209Z,41.07
2023-09-15T12:01:20.455Z,41.55
2023-09-15T12:03:48.751Z,42.71
2023-09-15T12:06:18.980Z,41.59
2023-09-15T12:08:49.586Z,41.11
2023-09-15T12:11:20.332Z,41.43
2023-09-15T12:13:50.289Z,41.30
2023-09-15T12:16:19.415Z,41.12
2023-09-15T12:18:48.742Z,41.63
2023-09-15T12:21:18.108Z,41.03
2023-09-15T12:23:49.909Z,41.12
2023-09-15T12:26:20.266Z,41.01
2023-09-15T12:28:48.427Z,40.80
2023-09-15T12:31:18.327Z,40.50
2023-09-15T12:33:48.804Z,40.66
2023-09-15T12:36:17.088Z,41.70
2023-09-15T12:38:44.973Z,40.55
2023-09-15T12:41:14.912Z,40.88
2023-09-15T12:43:44.283Z,40.96
2023-09-15T12:46:12.200Z,40.53
2023-09-15T12:48:40.582Z,41.40
2023-09-15T12:51:08.619Z,41.28
2023-09-15T12:53:36.382Z,41.24
2023-09-15T12:56:04.872Z,40.39
2023-09-15T12:58:33.303Z,40.25
2023-09-15T13:01:04.052Z,40.01
2023-09-15T13:03:32.328Z,39.81
2023-09-15T13:06:00.347Z,40.18
2023-09-15T13:08:28.107Z,39.54
2023-09-15T13:13:43.406Z,41.13
2023-09-15T13:16:12.721Z,39.58
2023-09-15T13:18:40.355Z,40.90
2023-09-15T13:21:09.012Z,39.89
2023-09-15T13:23:37.448Z,39.92
2023-09-15T13:26:06.395Z,40.63
2023-09-15T13:28:34.814Z,41.12
2023-09-15T13:31:03.653Z,41.00
2023-09-15T13:33:33.129Z,41.50
2023-09-15T13:36:00.943Z,40.17
2023-09-15T13:38:29.003Z,40.26
2023-09-15T13:40:57.024Z,39.98
2023-09-15T13:43:24.893Z,40.06
2023-09-15T13:45:53.420Z,40.35
2023-09-15T13:48:22.081Z,40.33
2023-09-15T13:50:52.789Z,39.87
2023-09-15T13:53:20.625Z,39.73
2023-09-15T13:55:49.295Z,40.75
2023-09-15T13:58:17.671Z,40.55
2023-09-15T14:00:58.220Z,40.20
2023-09-15T14:03:26.478Z,40.01
2023-09-15T14:05:55.930Z,39.69
2023-09-15T14:08:24.448Z,39.59
2023-09-15T14:10:52.694Z,39.68
2023-09-15T14:13:21.463Z,39.57
2023-09-15T14:15:50.004Z,39.32
2023-09-15T14:18:18.806Z,39.74
2023-09-15T14:20:49.212Z,39.99
2023-09-15T14:23:18.696Z,39.34
2023-09-15T14:25:46.928Z,39.02
2023-09-15T14:28:14.827Z,39.29
2023-09-15T14:30:42.767Z,39.31
2023-09-15T14:33:11.023Z,39.70
2023-09-15T14:35:39.080Z,39.20
2023-09-15T14:38:06.945Z,39.52
2023-09-15T14:40:36.236Z,39.05
2023-09-15T14:43:04.173Z,39.93
2023-09-15T14:45:32.557Z,39.81
2023-09-15T14:48:04.590Z,39.63
2023-09-15T14:50:34.114Z,38.77
2023-09-15T14:53:02.059Z,39.32
2023-09-15T14:55:30.378Z,40.06
2023-09-15T14:57:59.580Z,39.13
2023-09-15T15:00:27.642Z,38.96
2023-09-15T15:02:55.798Z,38.89
2023-09-15T15:05:23.734Z,39.28
2023-09-15T15:07:52.611Z,39.56
2023-09-15T15:10:20.863Z,39.33
2023-09-15T15:12:49.807Z,38.78
2023-09-15T15:15:19.293Z,39.22
2023-09-15T15:17:48.429Z,39.46
2023-09-15T15:20:16.423Z,39.87
2023-09-15T15:22:44.704Z,39.58
2023-09-15T15:25:12.926Z,40.20
2023-09-15T15:27:42.402Z,40.03
2023-09-15T15:30:11.269Z,39.79
2023-09-15T15:32:42.114Z,39.93
2023-09-15T15:35:11.100Z,40.68
2023-09-15T15:37:39.075Z,40.50
2023-09-15T15:40:08.442Z,41.10
2023-09-15T15:42:36.133Z,40.71
2023-09-15T15:45:04.041Z,40.79
2023-09-15T15:47:32.116Z,41.30
2023-09-15T15:50:01.359Z,41.18
2023-09-15T15:52:29.095Z,40.92
2023-09-15T15:54:57.239Z,41.46
2023-09-15T15:57:25.528Z,41.22
2023-09-15T15:59:53.402Z,41.12
2023-09-15T16:02:21.528Z,40.61
2023-09-15T16:04:49.696Z,40.82
2023-09-15T16:07:19.896Z,40.36
2023-09-15T16:09:48.754Z,39.83
2023-09-15T16:12:17.413Z,40.58
2023-09-15T16:14:45.372Z,40.83
2023-09-15T16:17:13.362Z,40.42
2023-09-15T16:19:41.171Z,41.03
2023-09-15T16:22:08.997Z,41.67
2023-09-15T16:24:38.476Z,41.81
2023-09-15T16:27:06.825Z,41.69
2023-09-15T16:29:34.660Z,41.69
2023-09-15T16:32:02.717Z,42.42
2023-09-15T16:34:30.550Z,41.99
2023-09-15T16:36:58.391Z,42.08
2023-09-15T16:39:28.448Z,42.73
2023-09-15T16:41:57.889Z,43.57
2023-09-15T16:44:25.689Z,43.65
2023-09-15T16:46:53.887Z,43.55
2023-09-15T16:49:21.767Z,44.21
2023-09-15T16:51:49.641Z,44.15
2023-09-15T16:54:20.200Z,44.76
2023-09-15T16:56:49.414Z,44.62
2023-09-15T16:59:18.606Z,44.89
2023-09-15T17:01:46.759Z,44.92
2023-09-15T17:04:14.646Z,44.63
2023-09-15T17:06:43.426Z,45.36
2023-09-15T17:09:13.462Z,45.39
2023-09-15T17:11:41.358Z,45.85
2023-09-15T17:14:09.312Z,46.10
2023-09-15T17:16:39.042Z,46.68
2023-09-15T17:19:07.763Z,46.65
2023-09-15T17:21:35.973Z,46.38
2023-09-15T17:24:04.384Z,46.80
2023-09-15T17:26:44.002Z,46.22
2023-09-15T17:29:12.386Z,46.67
2023-09-15T17:31:41.999Z,46.64
2023-09-15T17:34:11.517Z,46.47
2023-09-15T17:36:40.412Z,46.92
2023-09-15T17:39:08.300Z,46.84
2023-09-15T17:41:36.144Z,46.78
2023-09-15T17:44:05.486Z,46.84
2023-09-15T17:46:34.450Z,47.25
2023-09-15T17:49:03.793Z,48.05
2023-09-15T17:51:32.062Z,46.60
2023-09-15T17:54:00.045Z,48.01
2023-09-15T17:56:28.002Z,48.44
2023-09-15T17:58:56.405Z,48.40
2023-09-15T18:01:24.303Z,48.11
2023-09-15T18:03:52.155Z,48.91
2023-09-15T18:06:22.744Z,49.06
2023-09-15T18:08:51.206Z,49.77
2023-09-15T18:11:19.682Z,49.65
2023-09-15T18:13:47.940Z,50.48
2023-09-15T18:16:17.584Z,50.28
2023-09-15T18:18:46.248Z,50.27
2023-09-15T18:21:14.654Z,50.80
2023-09-15T18:23:44.238Z,50.71
2023-09-15T18:26:12.047Z,50.53
2023-09-15T18:28:41.850Z,51.15
2023-09-15T18:31:09.672Z,50.61
2023-09-15T18:33:37.685Z,51.12
2023-09-15T18:36:07.022Z,50.94
2023-09-15T18:38:34.965Z,51.46
2023-09-15T18:41:04.226Z,51.06
2023-09-15T18:43:32.364Z,51.26
2023-09-15T18:46:03.283Z,51.25
2023-09-15T18:48:31.153Z,51.23
2023-09-15T18:50:59.488Z,51.50
2023-09-15T18:53:27.290Z,51.56
2023-09-15T18:55:55.116Z,51.06
2023-09-15T18:58:24.700Z,51.44
2023-09-15T19:00:55.973Z,52.04
2023-09-15T19:03:24.356Z,52.04
2023-09-15T19:05:52.380Z,51.94
2023-09-15T19:08:20.663Z,52.19
2023-09-15T19:10:48.776Z,51.90
2023-09-15T19:13:27.196Z,52.42
2023-09-15T19:15:57.192Z,52.62
2023-09-15T19:18:25.408Z,52.65
2023-09-15T19:20:53.374Z,52.70
2023-09-15T19:23:21.438Z,52.86
2023-09-15T19:25:49.301Z,52.56
2023-09-15T19:28:17.543Z,52.72
2023-09-15T19:30:45.928Z,52.60
2023-09-15T19:33:17.998Z,52.86
2023-09-15T19:35:46.223Z,52.62
2023-09-15T19:38:14.091Z,52.89
2023-09-15T19:40:45.193Z,52.80
2023-09-15T19:43:13.608Z,52.76
2023-09-15T19:45:41.834Z,52.59
2023-09-15T19:48:10.563Z,52.94
2023-09-15T19:50:40.086Z,52.88
2023-09-15T19:53:08.720Z,51.73
2023-09-15T19:55:36.714Z,52.55
2023-09-15T19:58:06.291Z,52.55
2023-09-15T20:00:34.228Z,52.95
2023-09-15T20:03:02.173Z,52.96
2023-09-15T20:05:30.760Z,52.97
2023-09-15T20:08:00.159Z,53.16
2023-09-15T20:10:27.928Z,52.20
2023-09-15T20:12:56.462Z,52.85
2023-09-15T20:15:24.547Z,52.86
2023-09-15T20:17:52.854Z,53.16
2023-09-15T20:20:21.062Z,53.21
2023-09-15T20:22:48.929Z,53.16
2023-09-15T20:25:18.136Z,53.25
2023-09-15T20:27:46.672Z,53.40
2023-09-15T20:30:17.085Z,53.41
2023-09-15T20:32:44.927Z,53.26
2023-09-15T20:35:13.751Z,53.47
2023-09-15T20:37:41.592Z,53.51
2023-09-15T20:40:11.502Z,53.53
2023-09-15T20:42:41.505Z,53.54
2023-09-15T20:45:09.948Z,53.65
2023-09-15T20:47:37.866Z,53.77
2023-09-15T20:50:06.823Z,53.64
2023-09-15T20:52:34.649Z,53.93
2023-09-15T20:55:02.555Z,53.80
2023-09-15T20:57:32.900Z,53.95
2023-09-15T21:00:02.157Z,54.05
2023-09-15T21:02:29.999Z,54.02
2023-09-15T21:04:59.371Z,54.08
2023-09-15T21:07:27.263Z,54.02
2023-09-15T21:09:55.096Z,54.20
2023-09-15T21:12:23.227Z,54.29
2023-09-15T21:14:51.630Z,54.52
2023-09-15T21:17:21.140Z,54.33
2023-09-15T21:19:49.056Z,53.65
2023-09-15T21:22:16.880Z,54.00
2023-09-15T21:24:44.736Z,54.19
2023-09-15T21:27:12.894Z,54.23
2023-09-15T21:29:40.680Z,53.99
2023-09-15T21:32:08.494Z,54.24
2023-09-15T21:34:37.893Z,54.40
2023-09-15T21:37:05.881Z,54.19
2023-09-15T21:39:33.749Z,54.19
2023-09-15T21:42:01.874Z,54.51
2023-09-15T21:44:29.681Z,54.60
2023-09-15T21:46:57.517Z,54.62
2023-09-15T21:49:25.574Z,54.45
2023-09-15T21:51:54.909Z,54.57
2023-09-15T21:54:22.849Z,54.60
2023-09-15T21:56:51.178Z,54.75
2023-09-15T21:59:19.037Z,54.60
2023-09-15T22:01:48.257Z,54.67
2023-09-15T22:04:16.648Z,54.77
2023-09-15T22:06:44.486Z,54.82
2023-09-15T22:09:14.064Z,54.82
2023-09-15T22:11:42.215Z,54.23
2023-09-15T22:14:10.446Z,54.59
2023-09-15T22:16:38.294Z,54.87
2023-09-15T22:19:08.602Z,54.70
2023-09-15T22:21:36.488Z,54.65
2023-09-15T22:24:04.344Z,54.83
2023-09-15T22:26:34.145Z,55.03
2023-09-15T22:29:01.964Z,55.06
2023-09-15T22:31:29.807Z,55.03
2023-09-15T22:33:58.273Z,54.97
2023-09-15T22:36:26.850Z,54.90
2023-09-15T22:38:54.700Z,54.91
2023-09-15T22:41:23.416Z,54.94
2023-09-15T22:43:52.596Z,54.73
2023-09-15T22:46:24.531Z,54.99
2023-09-15T22:48:53.870Z,55.06
2023-09-15T22:51:21.984Z,54.56
2023-09-15T22:53:50.415Z,54.81
2023-09-15T22:56:18.237Z,54.90
2023-09-15T22:58:46.047Z,54.95
2023-09-15T23:01:15.518Z,55.12
2023-09-15T23:03:43.773Z,54.95
2023-09-15T23:06:11.658Z,54.80
2023-09-15T23:08:40.014Z,55.11
2023-09-15T23:11:08.621Z,55.01
2023-09-15T23:13:36.405Z,54.97
2023-09-15T23:16:08.570Z,54.92
2023-09-15T23:18:38.281Z,55.26
2023-09-15T23:21:06.110Z,54.83
2023-09-15T23:23:34.629Z,55.10
2023-09-15T23:26:02.418Z,55.10
2023-09-15T23:28:30.236Z,55.28
2023-09-15T23:30:58.704Z,55.27
2023-09-15T23:33:26.636Z,55.33
2023-09-15T23:35:55.858Z,55.68
2023-09-15T23:38:24.161Z,55.58
2023-09-15T23:40:52.014Z,55.45
2023-09-15T23:43:19.825Z,55.84
2023-09-15T23:45:48.095Z,56.00
2023-09-15T23:48:16.180Z,56.10
2023-09-15T23:50:43.997Z,56.22
2023-09-15T23:53:13.776Z,56.31
2023-09-15T23:55:42.514Z,55.76
2023-09-15T23:58:10.349Z,56.17
